Time;durP1;ratioP1;P1;durP2;ratioP2;P2;SDS_P1;SDS_P2;PMS_P1;PMS_P2;Temp;Humidity;BMP_temperature;BMP_pressure;BME280_temperature;BME280_humidity;BME280_pressure;Samples;Min_cycle;Max_cycle;Signal;HPM_P1;HPM_P2
2023/03/03 00:00:17;;;;;;;8.82;6.07;;;;;;;9.87;76.79;101794.53;5051326;28;20124;-85
2023/03/03 00:02:43;;;;;;;8.00;5.80;;;;;;;10.05;77.02;101826.25;5051116;28;20637;-85
2023/03/03 00:05:09;;;;;;;8.27;5.72;;;;;;;10.12;77.03;101827.63;5050848;28;20032;-85
2023/03/03 00:07:34;;;;;;;8.60;5.80;;;;;;;9.99;76.94;101802.34;5052158;28;20578;-85
2023/03/03 00:10:00;;;;;;;7.70;5.70;;;;;;;9.98;76.91;101804.03;5051731;28;20044;-85
2023/03/03 00:12:29;;;;;;;8.82;6.03;;;;;;;10.04;77.12;101807.91;5043681;28;20025;-86
2023/03/03 00:14:55;;;;;;;7.60;5.70;;;;;;;10.11;76.90;101816.25;5050744;28;20490;-86
2023/03/03 00:17:23;;;;;;;7.53;5.28;;;;;;;10.04;77.00;101806.19;5051357;28;20032;-86
2023/03/03 00:19:49;;;;;;;7.97;5.80;;;;;;;9.91;77.08;101780.91;5050695;28;20039;-85
2023/03/03 00:22:36;;;;;;;8.55;5.47;;;;;;;10.06;77.05;101806.31;5033956;28;20024;-86
2023/03/03 00:25:27;;;;;;;8.73;5.80;;;;;;;10.11;77.04;101797.09;5063453;28;20055;-87
2023/03/03 00:27:53;;;;;;;6.90;5.22;;;;;;;10.00;76.77;101772.84;5054629;28;20036;-86
2023/03/03 00:30:26;;;;;;;8.10;5.43;;;;;;;9.90;76.63;101759.91;5054253;28;20031;-86
2023/03/03 00:32:54;;;;;;;8.63;5.68;;;;;;;9.79;77.06;101743.47;5023649;28;20071;-86
2023/03/03 00:35:27;;;;;;;7.68;5.63;;;;;;;10.07;76.74;101789.84;5072369;28;20036;-86
2023/03/03 00:37:55;;;;;;;8.05;5.38;;;;;;;9.93;77.12;101774.09;5070567;28;20493;-86
2023/03/03 00:40:36;;;;;;;6.72;5.25;;;;;;;10.02;76.81;101797.34;5040161;28;20037;-86
2023/03/03 00:43:01;;;;;;;7.95;5.40;;;;;;;9.92;76.57;101758.31;5053082;28;20043;-86
2023/03/03 00:45:35;;;;;;;6.90;5.20;;;;;;;9.82;76.99;101743.72;5054625;28;20544;-86
2023/03/03 00:48:19;;;;;;;8.00;5.57;;;;;;;10.07;76.99;101782.91;5053602;28;20086;-86
2023/03/03 00:50:45;;;;;;;8.60;5.53;;;;;;;9.92;76.80;101761.84;5058435;28;20029;-85
2023/03/03 00:53:13;;;;;;;6.82;5.07;;;;;;;9.80;77.03;101740.09;5064132;28;20103;-85
2023/03/03 00:55:39;;;;;;;7.22;5.05;;;;;;;9.96;76.75;101769.09;5070412;28;20474;-86
2023/03/03 00:58:05;;;;;;;7.28;5.55;;;;;;;9.75;76.90;101728.41;5050305;28;20490;-85
2023/03/03 01:00:33;;;;;;;7.70;5.32;;;;;;;10.05;76.81;101784.50;5049985;28;20103;-87
2023/03/03 01:03:04;;;;;;;6.55;5.32;;;;;;;10.05;76.95;101788.81;5053978;28;20077;-87
2023/03/03 01:05:30;;;;;;;6.00;4.90;;;;;;;10.06;76.61;101777.59;5053725;28;20397;-86
2023/03/03 01:07:56;;;;;;;7.45;5.40;;;;;;;9.78;76.80;101734.75;5050415;28;20478;-86
2023/03/03 01:10:21;;;;;;;6.63;5.13;;;;;;;9.82;76.85;101728.06;5050644;28;20033;-86
2023/03/03 01:12:47;;;;;;;6.85;4.95;;;;;;;10.02;76.87;101765.13;5053623;28;20024;-84
2023/03/03 01:15:14;;;;;;;8.27;5.40;;;;;;;10.08;76.59;101766.47;5053797;28;20140;-86
2023/03/03 01:17:41;;;;;;;5.93;4.80;;;;;;;9.88;76.78;101719.75;5071247;28;20095;-86
2023/03/03 01:20:10;;;;;;;7.00;5.28;;;;;;;9.80;76.69;101706.19;5052985;28;20044;-86
2023/03/03 01:22:36;;;;;;;7.55;5.30;;;;;;;9.74;77.14;101693.59;5053676;28;20035;-86
2023/03/03 01:25:04;;;;;;;6.72;5.18;;;;;;;10.08;76.91;101766.47;5053995;28;20048;-85
2023/03/03 01:27:30;;;;;;;6.53;5.40;;;;;;;10.12;76.75;101759.78;5054039;28;20033;-87
2023/03/03 01:29:56;;;;;;;7.15;5.10;;;;;;;9.84;77.25;101715.13;5054026;28;20077;-86
2023/03/03 01:32:23;;;;;;;8.15;5.70;;;;;;;10.01;76.83;101745.94;5053977;28;20029;-85
2023/03/03 01:34:49;;;;;;;6.50;5.00;;;;;;;9.76;76.98;101712.88;5053874;28;20099;-85
2023/03/03 01:37:14;;;;;;;7.13;4.95;;;;;;;9.81;77.17;101712.31;5070343;28;20095;-86
2023/03/03 01:39:40;;;;;;;7.25;5.40;;;;;;;9.98;76.89;101738.78;5071393;28;20033;-87
2023/03/03 01:42:06;;;;;;;8.05;5.70;;;;;;;9.85;76.58;101703.91;5048213;28;20490;-85
2023/03/03 01:44:32;;;;;;;6.97;5.05;;;;;;;9.83;77.05;101706.41;5068353;28;20533;-86
2023/03/03 01:47:06;;;;;;;7.10;5.18;;;;;;;10.10;76.81;101745.72;5051282;28;20537;-86
2023/03/03 01:49:48;;;;;;;7.15;5.05;;;;;;;9.84;76.93;101705.63;5053151;28;20186;-86
2023/03/03 01:52:27;;;;;;;7.30;5.15;;;;;;;10.02;77.02;101742.53;5052263;28;20537;-86
2023/03/03 01:54:56;;;;;;;7.28;5.38;;;;;;;9.84;76.93;101718.66;5052133;28;20029;-87
2023/03/03 01:57:36;;;;;;;8.48;5.28;;;;;;;9.94;76.91;101735.84;5052962;28;20081;-86
2023/03/03 02:00:04;;;;;;;8.05;5.65;;;;;;;9.99;77.02;101734.50;5069156;28;20025;-86
2023/03/03 02:02:30;;;;;;;8.32;5.70;;;;;;;9.98;76.62;101743.13;5051673;28;20037;-85
2023/03/03 02:04:57;;;;;;;8.48;5.10;;;;;;;10.07;76.83;101745.47;5060583;28;20093;-85
2023/03/03 02:07:23;;;;;;;;;;;;;;;10.07;76.47;101754.19;5050966;28;20048;-84
2023/03/03 02:10:16;;;;;;;7.15;5.25;;;;;;;10.07;76.83;101748.09;5052406;28;19912;-86
2023/03/03 02:12:53;;;;;;;7.47;5.00;;;;;;;10.07;76.75;101745.47;5063106;28;20028;-87
2023/03/03 02:15:25;;;;;;;6.78;5.30;;;;;;;10.06;77.05;101749.78;5067454;28;20051;-86
2023/03/03 02:17:56;;;;;;;7.88;5.32;;;;;;;9.96;76.89;101732.56;5052610;28;20024;-86
2023/03/03 02:20:35;;;;;;;7.07;5.22;;;;;;;10.05;76.71;101749.69;5043168;28;20044;-85
2023/03/03 02:23:17;;;;;;;7.97;5.78;;;;;;;9.94;76.87;101728.94;5052661;28;20070;-85
2023/03/03 02:25:59;;;;;;;7.75;5.43;;;;;;;10.05;77.03;101741.84;5071232;28;20045;-86
2023/03/03 02:28:27;;;;;;;6.78;5.30;;;;;;;10.05;77.11;101742.75;5070206;28;20153;-86
2023/03/03 02:30:57;;;;;;;6.18;4.55;;;;;;;10.06;76.89;101748.91;5052854;28;20036;-87
2023/03/03 02:33:24;;;;;;;6.72;4.95;;;;;;;9.97;76.74;101742.22;5034676;28;20520;-86
2023/03/03 02:35:51;;;;;;;8.38;5.20;;;;;;;9.96;76.91;101735.16;5066593;28;20486;-86
2023/03/03 02:38:23;;;;;;;8.52;5.63;;;;;;;9.99;77.00;101747.56;5034496;28;20459;-85
2023/03/03 02:41:18;;;;;;;6.68;5.15;;;;;;;9.95;76.90;101735.97;5049541;28;20025;-87
2023/03/03 02:44:04;;;;;;;6.95;5.32;;;;;;;10.04;76.82;101747.88;5063713;28;20114;-86
2023/03/03 02:46:35;;;;;;;6.63;5.28;;;;;;;9.88;76.52;101714.53;5051423;28;20490;-86
2023/03/03 02:49:02;;;;;;;6.20;4.65;;;;;;;10.05;77.09;101747.97;5050863;28;20035;-85
2023/03/03 02:51:27;;;;;;;;;;;;;;;10.05;76.92;101750.56;5042385;28;20819;-86
2023/03/03 02:53:53;;;;;;;9.05;5.18;;;;;;;9.95;76.62;101733.38;5065598;28;19920;-86
2023/03/03 02:56:18;;;;;;;6.93;5.03;;;;;;;9.88;77.11;101715.44;5052216;28;20085;-86
2023/03/03 02:58:44;;;;;;;6.88;5.35;;;;;;;9.94;77.23;101730.63;5064595;28;20036;-87
2023/03/03 03:01:10;;;;;;;7.57;5.55;;;;;;;10.01;76.89;101748.53;5069191;28;20409;-86
2023/03/03 03:03:35;;;;;;;7.80;5.40;;;;;;;10.02;76.73;101750.38;5050950;28;20035;-86
2023/03/03 03:06:01;;;;;;;6.97;5.63;;;;;;;9.94;76.74;101731.53;5053481;28;20029;-87
2023/03/03 03:08:27;;;;;;;7.20;5.45;;;;;;;10.05;76.80;101742.75;5065669;28;20413;-85
2023/03/03 03:10:52;;;;;;;8.00;5.88;;;;;;;9.87;77.20;101725.78;5045769;28;20056;-84
2023/03/03 03:13:18;;;;;;;9.32;6.70;;;;;;;9.95;77.08;101750.75;5051592;28;20529;-84
2023/03/03 03:15:47;;;;;;;7.15;5.80;;;;;;;9.84;76.93;101726.47;5071875;28;20035;-84
2023/03/03 03:18:13;;;;;;;7.93;5.93;;;;;;;9.96;76.88;101742.09;5056095;28;20032;-84
2023/03/03 03:20:40;;;;;;;7.25;5.57;;;;;;;9.95;76.69;101735.97;5074392;28;20024;-85
2023/03/03 03:23:06;;;;;;;7.72;6.07;;;;;;;9.87;76.93;101720.56;5056163;28;20119;-86
2023/03/03 03:25:32;;;;;;;7.18;5.35;;;;;;;9.89;77.17;101729.41;5056178;28;20064;-85
2023/03/03 03:27:58;;;;;;;7.78;5.45;;;;;;;9.99;76.95;101729.28;5056356;28;20060;-86
2023/03/03 03:30:23;;;;;;;7.70;5.78;;;;;;;9.71;76.72;101679.41;5056163;28;20666;-85
2023/03/03 03:32:49;;;;;;;7.85;5.55;;;;;;;9.84;76.61;101697.78;5073514;28;20496;-84
2023/03/03 03:35:16;;;;;;;7.18;5.60;;;;;;;9.81;76.72;101699.25;5056233;28;20557;-85
2023/03/03 03:37:42;;;;;;;7.72;5.50;;;;;;;9.69;76.78;101674.09;5049731;28;20082;-85
2023/03/03 03:40:09;;;;;;;6.68;5.18;;;;;;;9.97;76.52;101718.72;5060246;28;20531;-85
2023/03/03 03:42:34;;;;;;;;;;;;;;;10.02;76.85;101719.06;5061932;28;20035;-86
2023/03/03 03:45:00;;;;;;;7.75;5.22;;;;;;;10.02;76.67;101721.66;5055452;28;20177;-85
2023/03/03 03:47:25;;;;;;;8.18;5.60;;;;;;;9.71;76.67;101666.38;5055310;28;20032;-85
2023/03/03 03:49:51;;;;;;;7.13;5.38;;;;;;;9.90;76.79;101694.69;5073747;28;20493;-85
2023/03/03 03:52:17;;;;;;;6.93;5.07;;;;;;;9.98;76.72;101715.31;5055213;28;20047;-85
2023/03/03 03:54:42;;;;;;;7.13;5.00;;;;;;;9.98;76.61;101709.19;5071825;28;20029;-86
2023/03/03 03:57:08;;;;;;;6.43;5.28;;;;;;;9.82;76.93;101675.91;5053339;28;20037;-86
2023/03/03 03:59:34;;;;;;;6.93;5.10;;;;;;;9.72;76.91;101653.47;5055820;28;20038;-85
2023/03/03 04:01:59;;;;;;;6.95;5.28;;;;;;;9.98;76.97;101702.25;5073251;28;20028;-86
2023/03/03 04:04:25;;;;;;;6.93;5.43;;;;;;;9.91;76.91;101689.59;5073002;28;20063;-86
2023/03/03 04:06:51;;;;;;;6.65;5.00;;;;;;;9.92;76.36;101687.88;5043793;28;20063;-86
2023/03/03 04:09:16;;;;;;;7.13;4.90;;;;;;;10.00;76.74;101699.78;5073261;28;20032;-85
2023/03/03 04:11:42;;;;;;;5.97;4.95;;;;;;;9.92;76.75;101686.16;5059603;28;20587;-86
2023/03/03 04:14:07;;;;;;;7.07;5.35;;;;;;;9.63;76.50;101641.44;5071898;28;20033;-85
2023/03/03 04:16:33;;;;;;;5.85;4.72;;;;;;;9.99;76.38;101696.25;5073279;28;20513;-86
2023/03/03 04:18:59;;;;;;;6.30;4.93;;;;;;;9.93;76.69;101688.00;5055065;28;20029;-86
2023/03/03 04:21:25;;;;;;;7.05;5.32;;;;;;;9.95;76.70;101696.84;5072031;28;20089;-87
2023/03/03 04:23:52;;;;;;;5.78;5.05;;;;;;;9.79;76.59;101676.56;5037960;28;20067;-85
2023/03/03 04:26:18;;;;;;;7.15;4.72;;;;;;;9.70;76.93;101648.94;5055720;28;20032;-86
2023/03/03 04:28:44;;;;;;;6.22;5.18;;;;;;;9.56;76.84;101634.88;5042629;28;20137;-85
2023/03/03 04:31:10;;;;;;;5.88;4.75;;;;;;;9.67;76.50;101635.66;5070690;28;20536;-85
2023/03/03 04:33:36;;;;;;;7.47;4.85;;;;;;;9.70;76.81;101656.75;5061427;28;20036;-86
2023/03/03 04:36:01;;;;;;;7.40;5.25;;;;;;;9.78;76.61;101666.94;5072967;28;20418;-86
2023/03/03 04:38:27;;;;;;;6.60;4.93;;;;;;;9.79;76.55;101679.16;5054995;28;20037;-86
2023/03/03 04:40:52;;;;;;;6.57;4.57;;;;;;;9.74;76.88;101675.34;5044593;28;20057;-85
2023/03/03 04:43:18;;;;;;;6.15;4.78;;;;;;;9.75;76.43;101682.34;5041457;28;20028;-86
2023/03/03 04:45:44;;;;;;;7.22;5.28;;;;;;;9.83;76.97;101695.06;5054612;28;20033;-85
2023/03/03 04:48:09;;;;;;;6.78;5.03;;;;;;;9.60;77.14;101657.78;5072747;28;20097;-85
2023/03/03 04:50:35;;;;;;;6.05;4.45;;;;;;;9.85;76.85;101696.06;5068685;28;20027;-86
2023/03/03 04:53:01;;;;;;;5.35;4.20;;;;;;;9.83;76.77;101687.22;5032213;28;20033;-86
2023/03/03 04:55:26;;;;;;;5.90;4.80;;;;;;;9.65;76.55;101659.03;5047213;28;20040;-85
2023/03/03 04:57:52;;;;;;;5.63;4.65;;;;;;;9.95;76.64;101717.72;5051904;28;20059;-86
2023/03/03 05:00:18;;;;;;;7.90;4.97;;;;;;;9.96;76.63;101718.63;5059528;28;20040;-85
2023/03/03 05:02:46;;;;;;;6.20;4.97;;;;;;;9.77;76.83;101691.19;5051849;28;20071;-85
2023/03/03 05:05:12;;;;;;;5.65;4.63;;;;;;;9.71;76.75;101677.72;5056926;28;20081;-86
2023/03/03 05:07:38;;;;;;;6.80;4.60;;;;;;;9.96;76.75;101726.44;5058812;28;20037;-85
2023/03/03 05:10:05;;;;;;;6.38;4.97;;;;;;;9.80;76.61;101690.53;5052677;28;20024;-84
2023/03/03 05:12:30;;;;;;;6.57;5.10;;;;;;;9.90;76.83;101716.47;5046708;28;20040;-86
2023/03/03 05:14:57;;;;;;;5.82;4.65;;;;;;;9.48;76.47;101631.75;5068909;28;20033;-86
2023/03/03 05:17:22;;;;;;;6.22;4.70;;;;;;;9.76;76.76;101697.22;5051576;28;20037;-86
2023/03/03 05:19:48;;;;;;;6.03;4.50;;;;;;;9.96;76.89;101722.13;5066064;28;20035;-86
2023/03/03 05:22:14;;;;;;;4.97;4.30;;;;;;;9.83;76.58;101695.97;5050658;28;20036;-86
2023/03/03 05:24:41;;;;;;;6.90;4.90;;;;;;;9.68;76.78;101674.91;5049557;28;20048;-86
2023/03/03 05:27:07;;;;;;;5.10;3.97;;;;;;;9.89;77.22;101719.88;5058457;28;20045;-86
2023/03/03 05:29:33;;;;;;;5.97;4.63;;;;;;;9.93;76.77;101727.13;5047343;28;20036;-86
2023/03/03 05:31:58;;;;;;;6.10;4.45;;;;;;;9.91;76.75;101713.06;5068806;28;20062;-85
2023/03/03 05:34:24;;;;;;;5.75;4.57;;;;;;;9.95;76.95;101717.72;5065780;28;20032;-85
2023/03/03 05:36:50;;;;;;;5.40;4.45;;;;;;;9.93;76.74;101714.09;5058461;28;20064;-85
2023/03/03 05:39:15;;;;;;;5.78;4.63;;;;;;;9.95;76.43;101717.72;5064052;28;20033;-86
2023/03/03 05:41:41;;;;;;;6.43;4.80;;;;;;;9.78;76.73;101684.31;5053507;28;20032;-85
2023/03/03 05:44:07;;;;;;;6.38;4.72;;;;;;;9.86;76.70;101693.56;5049568;28;20060;-86
2023/03/03 05:46:32;;;;;;;5.72;4.22;;;;;;;9.76;76.88;101684.19;5049507;28;20060;-86
2023/03/03 05:48:58;;;;;;;6.15;4.70;;;;;;;9.84;76.90;101682.13;5067721;28;20055;-85
2023/03/03 05:51:24;;;;;;;6.70;4.85;;;;;;;9.95;76.51;101709.88;5066816;28;20489;-85
2023/03/03 05:53:49;;;;;;;6.85;4.70;;;;;;;9.89;77.01;101709.44;5051162;28;20036;-85
2023/03/03 05:56:15;;;;;;;5.70;4.32;;;;;;;9.84;76.81;101699.47;5050943;28;20119;-86
2023/03/03 05:58:40;;;;;;;5.35;4.15;;;;;;;9.57;76.98;101653.25;5060995;28;20506;-85
2023/03/03 06:01:06;;;;;;;7.03;5.03;;;;;;;9.92;76.86;101700.91;5031510;28;20044;-85
2023/03/03 06:03:32;;;;;;;6.25;4.88;;;;;;;9.78;76.70;101690.41;5065161;28;20481;-85
2023/03/03 06:05:57;;;;;;;6.45;4.60;;;;;;;9.83;76.86;101697.66;5044364;28;20040;-85
2023/03/03 06:08:23;;;;;;;6.65;4.88;;;;;;;9.83;77.00;101692.44;5037768;28;20033;-85
2023/03/03 06:10:49;;;;;;;6.55;4.88;;;;;;;9.55;76.59;101657.47;5044406;28;20036;-86
2023/03/03 06:13:15;;;;;;;6.32;4.90;;;;;;;9.39;76.75;101628.47;5049795;28;20110;-86
2023/03/03 06:15:40;;;;;;;6.22;4.85;;;;;;;9.76;76.94;101684.19;5047002;28;20127;-86
2023/03/03 06:18:07;;;;;;;6.55;4.72;;;;;;;9.80;76.87;101700.97;5044932;28;20035;-86
2023/03/03 06:20:34;;;;;;;6.95;4.82;;;;;;;9.68;76.87;101674.91;5044419;28;20059;-86
2023/03/03 06:22:59;;;;;;;6.30;4.60;;;;;;;9.72;77.08;101671.72;5048569;28;20032;-85
2023/03/03 06:25:25;;;;;;;5.95;4.72;;;;;;;9.86;76.75;101710.91;5058126;28;20044;-85
2023/03/03 06:27:51;;;;;;;7.00;4.57;;;;;;;9.71;76.91;101684.63;5064316;28;20072;-85
2023/03/03 06:30:17;;;;;;;5.85;4.45;;;;;;;9.85;76.83;101706.50;5046925;28;20024;-85
2023/03/03 06:32:43;;;;;;;7.30;4.57;;;;;;;9.78;76.77;101700.84;5065093;28;20064;-85
2023/03/03 06:35:09;;;;;;;5.78;4.35;;;;;;;9.72;76.65;101684.75;5062937;28;20093;-85
2023/03/03 06:37:35;;;;;;;5.97;4.53;;;;;;;9.67;76.62;101683.53;5065006;28;20033;-84
2023/03/03 06:40:01;;;;;;;5.47;4.43;;;;;;;9.84;76.96;101707.28;5061910;28;20498;-85
2023/03/03 06:42:27;;;;;;;6.13;4.82;;;;;;;9.90;76.57;101716.47;5047138;28;20117;-85
2023/03/03 06:44:52;;;;;;;6.57;4.82;;;;;;;9.75;76.60;101690.19;5048200;28;20343;-86
2023/03/03 06:47:18;;;;;;;5.55;4.32;;;;;;;9.58;76.92;101670.69;5049766;28;20037;-85
2023/03/03 06:49:43;;;;;;;5.90;4.30;;;;;;;9.77;77.40;101700.72;5063944;28;20033;-84
2023/03/03 06:52:13;;;;;;;6.68;4.78;;;;;;;9.74;77.12;101693.59;5064672;28;20295;-84
2023/03/03 06:54:41;;;;;;;6.45;4.53;;;;;;;9.75;77.21;101687.56;5048270;28;20044;-86
2023/03/03 06:57:27;;;;;;;6.65;4.72;;;;;;;9.89;76.84;101716.38;5050906;28;20047;-83
2023/03/03 06:59:55;;;;;;;5.78;4.38;;;;;;;9.69;77.22;101692.34;5062977;28;20031;-83
2023/03/03 07:02:20;;;;;;;6.13;4.60;;;;;;;9.81;76.96;101696.66;5050726;28;20024;-84
2023/03/03 07:04:47;;;;;;;6.43;4.70;;;;;;;9.71;76.86;101684.63;5064389;28;20036;-84
2023/03/03 07:07:21;;;;;;;6.00;4.60;;;;;;;9.78;76.81;101684.31;5047188;28;20025;-84
2023/03/03 07:09:52;;;;;;;6.05;4.45;;;;;;;9.56;76.93;101650.53;5065820;28;20107;-84
2023/03/03 07:12:23;;;;;;;7.10;4.40;;;;;;;9.62;76.89;101650.97;5045350;28;20080;-84
2023/03/03 07:15:17;;;;;;;6.50;4.53;;;;;;;9.60;77.20;101654.28;5039798;28;20033;-85
2023/03/03 07:17:47;;;;;;;7.32;4.63;;;;;;;9.87;77.10;101703.22;5052962;28;20048;-86
2023/03/03 07:20:21;;;;;;;5.03;4.13;;;;;;;9.81;76.91;101691.44;5065632;28;20520;-83
2023/03/03 07:22:47;;;;;;;5.55;4.30;;;;;;;9.81;77.22;101689.72;5045227;28;20028;-84
2023/03/03 07:25:30;;;;;;;5.93;4.43;;;;;;;9.86;77.02;101696.16;5045039;28;20510;-85
2023/03/03 07:28:11;;;;;;;6.05;4.15;;;;;;;9.44;76.88;101624.50;5047260;28;20493;-84
2023/03/03 07:30:36;;;;;;;6.22;4.43;;;;;;;9.86;77.08;101697.88;5048920;28;20036;-85
2023/03/03 07:33:02;;;;;;;5.43;4.20;;;;;;;9.76;76.74;101681.56;5048401;28;20029;-84
2023/03/03 07:35:39;;;;;;;5.68;4.47;;;;;;;9.67;76.60;101662.66;5064159;28;20029;-85
2023/03/03 07:38:18;;;;;;;6.30;4.43;;;;;;;9.83;76.81;101669.88;5066207;28;20547;-85
2023/03/03 07:40:49;;;;;;;6.22;4.28;;;;;;;9.82;76.93;101678.50;5055604;28;20112;-84
2023/03/03 07:43:24;;;;;;;6.07;4.05;;;;;;;9.90;76.91;101692.09;5049568;28;20414;-85
2023/03/03 07:45:50;;;;;;;5.68;4.25;;;;;;;9.85;77.04;101686.53;5062445;28;20036;-86
2023/03/03 07:48:25;;;;;;;5.82;4.50;;;;;;;9.85;76.87;101694.38;5049599;28;20033;-85
2023/03/03 07:50:51;;;;;;;5.65;4.50;;;;;;;9.81;77.20;101683.59;5048759;28;20028;-84
2023/03/03 07:53:28;;;;;;;6.03;4.35;;;;;;;9.73;77.02;101675.22;5043440;28;20056;-85
2023/03/03 07:55:55;;;;;;;5.47;4.18;;;;;;;9.66;77.45;101663.44;5039570;28;20068;-85
2023/03/03 07:58:23;;;;;;;5.55;4.30;;;;;;;9.67;77.24;101652.22;5029036;28;20032;-84
2023/03/03 08:01:11;;;;;;;5.68;4.57;;;;;;;9.82;77.36;101694.16;5045362;28;20112;-86
2023/03/03 08:03:36;;;;;;;;;;;;;;;9.81;77.34;101689.72;5044838;28;20087;-85
2023/03/03 08:06:24;;;;;;;5.97;4.13;;;;;;;9.78;77.65;101689.53;5065728;28;19912;-85
2023/03/03 08:08:49;;;;;;;5.82;4.22;;;;;;;9.70;77.45;101678.53;5042223;28;20426;-84
2023/03/03 08:11:15;;;;;;;5.50;4.20;;;;;;;9.46;77.41;101632.41;5064629;28;20032;-84
2023/03/03 08:13:42;;;;;;;5.75;4.55;;;;;;;9.72;77.55;101682.16;5061569;28;20028;-84
2023/03/03 08:16:10;;;;;;;5.22;4.05;;;;;;;9.84;77.20;101691.63;5041869;28;20025;-84
2023/03/03 08:18:49;;;;;;;5.28;4.40;;;;;;;9.81;77.48;101696.66;5062407;28;20536;-84
2023/03/03 08:21:22;;;;;;;5.68;4.05;;;;;;;9.62;77.12;101656.19;5047677;28;20028;-83
2023/03/03 08:23:50;;;;;;;4.78;4.05;;;;;;;9.82;77.39;101688.00;5051034;28;20052;-84
2023/03/03 08:26:16;;;;;;;4.88;3.97;;;;;;;9.72;77.20;101676.03;5072356;28;20055;-87
2023/03/03 08:28:44;;;;;;;5.38;4.05;;;;;;;9.77;77.52;101687.69;5051205;28;20024;-90
2023/03/03 08:31:11;;;;;;;4.78;3.75;;;;;;;9.70;77.49;101678.53;5065078;28;20124;-87
2023/03/03 08:33:39;;;;;;;5.78;4.40;;;;;;;9.81;77.34;101694.94;5052841;28;20121;-88
2023/03/03 08:36:06;;;;;;;4.88;4.15;;;;;;;9.75;77.18;101679.75;5053905;28;20021;-89
2023/03/03 08:38:33;;;;;;;4.45;3.70;;;;;;;9.70;77.29;101665.47;5054653;28;20035;-89
2023/03/03 08:40:59;;;;;;;6.63;4.22;;;;;;;9.85;77.11;101696.97;5060406;28;20051;-88
2023/03/03 08:43:25;;;;;;;5.72;4.32;;;;;;;9.62;77.32;101665.72;5054563;28;20032;-88
2023/03/03 08:45:52;;;;;;;5.20;4.10;;;;;;;9.81;77.47;101689.72;5052663;28;20147;-90
2023/03/03 08:48:18;;;;;;;5.57;4.25;;;;;;;9.80;76.89;101672.28;5051673;28;20051;-86
2023/03/03 08:50:48;;;;;;;5.80;4.40;;;;;;;9.83;77.34;101682.91;5053138;28;20037;-89
2023/03/03 08:53:14;;;;;;;11.40;4.47;;;;;;;9.61;77.31;101627.38;5055332;28;20032;-90
2023/03/03 08:55:48;;;;;;;5.13;4.40;;;;;;;9.77;76.97;101665.09;5039154;28;20052;-92
2023/03/03 08:58:15;;;;;;;5.53;4.10;;;;;;;9.71;77.29;101651.63;5056222;28;20139;-89
2023/03/03 09:00:42;;;;;;;6.63;4.05;;;;;;;9.73;77.51;101644.81;5054840;28;20503;-87
2023/03/03 09:03:09;;;;;;;4.93;4.05;;;;;;;9.58;77.34;101621.16;5055169;28;20498;-88
2023/03/03 09:05:36;;;;;;;4.50;3.97;;;;;;;9.93;77.03;101674.06;5056228;28;20098;-90
2023/03/03 09:08:03;;;;;;;6.75;4.13;;;;;;;9.77;77.29;101630.31;5038654;28;20032;-88
2023/03/03 09:10:30;;;;;;;5.50;4.20;;;;;;;9.85;77.06;101646.50;5039294;28;20043;-89
2023/03/03 09:13:02;;;;;;;7.03;4.18;;;;;;;10.00;76.91;101665.84;5059407;28;20055;-89
2023/03/03 09:15:33;;;;;;;5.93;4.32;;;;;;;9.82;77.03;101636.78;5051861;28;20086;-89
2023/03/03 09:18:09;;;;;;;6.25;3.90;;;;;;;9.90;76.92;101642.50;5058359;28;20099;-88
2023/03/03 09:20:38;;;;;;;6.10;4.38;;;;;;;9.89;77.20;101639.00;5055664;28;20033;-90
2023/03/03 09:23:56;;;;;;;4.40;3.95;;;;;;;10.08;77.14;101650.75;5055211;28;20032;-89
2023/03/03 09:26:43;;;;;;;5.35;4.25;;;;;;;9.93;77.15;101614.03;5041364;28;20048;-89
2023/03/03 09:29:14;;;;;;;5.55;3.95;;;;;;;10.11;77.18;101649.22;5061240;28;20032;-89
2023/03/03 09:31:59;;;;;;;4.45;3.53;;;;;;;10.15;77.40;101647.75;5071041;28;20033;-90
2023/03/03 09:34:36;;;;;;;5.43;3.80;;;;;;;10.10;76.80;101630.88;5054867;28;20444;-88
2023/03/03 09:37:39;;;;;;;5.75;3.95;;;;;;;9.93;77.11;101606.22;5068506;28;20042;-90
2023/03/03 09:40:46;;;;;;;5.05;3.88;;;;;;;10.19;77.49;101653.28;5041198;28;20497;-89
2023/03/03 09:43:41;;;;;;;5.05;3.95;;;;;;;10.20;76.99;101651.56;5053037;28;20020;-90
2023/03/03 09:46:25;;;;;;;4.28;3.42;;;;;;;10.27;77.38;101646.00;5054519;28;20036;-89
2023/03/03 09:49:21;;;;;;;6.70;4.22;;;;;;;10.32;77.03;101649.84;5064996;28;20029;-89
2023/03/03 09:52:02;;;;;;;6.07;3.58;;;;;;;10.25;77.98;101645.00;5071317;28;20048;-89
2023/03/03 09:54:53;;;;;;;4.78;3.78;;;;;;;10.26;78.13;101640.66;5054626;28;20036;-89
2023/03/03 09:57:28;;;;;;;6.93;3.65;;;;;;;10.20;77.67;101633.31;5054321;28;20028;-89
2023/03/03 10:00:15;;;;;;;5.00;3.70;;;;;;;10.32;77.81;101639.41;5054040;28;20123;-88
2023/03/03 10:02:40;;;;;;;4.03;3.45;;;;;;;10.35;77.53;101637.03;5059600;28;20058;-88
2023/03/03 10:05:28;;;;;;;7.47;3.58;;;;;;;10.28;77.41;101636.44;5072013;28;20029;-91
2023/03/03 10:08:15;;;;;;;4.88;3.45;;;;;;;10.33;78.24;101645.56;5065890;28;20103;-90
2023/03/03 10:10:52;;;;;;;6.32;3.78;;;;;;;10.33;78.05;101635.13;5055297;28;20033;-90
2023/03/03 10:13:21;;;;;;;5.07;3.45;;;;;;;10.35;78.09;101630.88;5054397;28;20024;-90
2023/03/03 10:15:52;;;;;;;5.75;3.88;;;;;;;10.29;78.75;101613.09;5072212;28;20034;-89
2023/03/03 10:18:57;;;;;;;6.68;3.85;;;;;;;10.37;78.40;101624.97;5071121;28;20032;-89
2023/03/03 10:21:39;;;;;;;6.55;4.05;;;;;;;10.28;79.95;101606.03;5070778;28;20105;-89
2023/03/03 10:24:23;;;;;;;6.65;4.10;;;;;;;10.25;79.89;101594.50;5070976;28;20033;-89
2023/03/03 10:27:28;;;;;;;6.90;4.30;;;;;;;10.44;79.60;101623.69;5072210;28;20029;-89
2023/03/03 10:30:11;;;;;;;7.03;4.40;;;;;;;10.45;79.68;101609.81;5053872;28;20029;-91
2023/03/03 10:33:02;;;;;;;7.85;4.60;;;;;;;10.29;80.82;101584.38;5053809;28;20481;-87
2023/03/03 10:35:34;;;;;;;9.93;4.88;;;;;;;10.48;81.06;101604.81;5048782;28;20037;-89
2023/03/03 10:38:47;;;;;;;10.25;5.22;;;;;;;10.48;81.17;101597.00;5070557;28;20029;-90
2023/03/03 10:41:28;;;;;;;16.75;5.78;;;;;;;10.49;82.03;101588.34;5053286;28;20020;-89
2023/03/03 10:44:03;;;;;;;11.10;5.45;;;;;;;10.49;82.38;101580.50;5053047;28;20023;-89
2023/03/03 10:46:39;;;;;;;14.60;5.78;;;;;;;10.34;82.39;101549.03;5071351;28;20024;-89
2023/03/03 10:49:42;;;;;;;11.10;5.60;;;;;;;10.49;82.87;101567.44;5053594;28;20024;-89
2023/03/03 10:52:30;;;;;;;14.75;5.72;;;;;;;10.55;83.06;101556.50;5071431;28;20044;-90
2023/03/03 10:55:03;;;;;;;10.52;5.38;;;;;;;10.58;82.97;101548.88;5054031;28;20016;-89
2023/03/03 10:58:05;;;;;;;14.57;5.50;;;;;;;10.55;83.01;101556.50;5070872;28;20029;-90
2023/03/03 11:00:34;;;;;;;11.48;5.65;;;;;;;10.39;83.54;101518.94;5048283;28;20028;-90
2023/03/03 11:03:21;;;;;;;11.98;5.53;;;;;;;10.55;83.34;101548.69;5046834;28;20040;-90
2023/03/03 11:05:54;;;;;;;11.07;5.93;;;;;;;10.59;83.50;101556.81;5045569;28;20078;-89
2023/03/03 11:08:27;;;;;;;12.82;6.03;;;;;;;10.59;83.53;101548.09;5052102;28;20040;-90
2023/03/03 11:11:31;;;;;;;10.48;5.78;;;;;;;10.61;83.52;101545.59;5042549;28;20024;-89
2023/03/03 11:14:30;;;;;;;14.40;5.60;;;;;;;10.49;83.82;101519.53;5058848;28;20063;-88
2023/03/03 11:17:22;;;;;;;12.10;5.55;;;;;;;10.63;83.89;101537.03;5053603;28;20115;-89
2023/03/03 11:20:00;;;;;;;11.93;5.55;;;;;;;10.65;83.51;101529.31;5022766;28;20091;-87
2023/03/03 11:23:06;;;;;;;9.73;5.50;;;;;;;10.41;84.22;101485.06;5053072;28;20108;-87
2023/03/03 11:25:59;;;;;;;9.05;5.18;;;;;;;10.56;83.81;101512.22;5030599;28;20044;-87
2023/03/03 11:28:46;;;;;;;12.57;5.50;;;;;;;10.67;83.45;101528.59;5036519;28;20037;-88
2023/03/03 11:31:24;;;;;;;10.05;5.25;;;;;;;10.66;83.61;101521.56;5046651;28;20029;-87
2023/03/03 11:34:18;;;;;;;11.10;6.43;;;;;;;10.66;83.20;101510.22;5053096;28;20036;-87
2023/03/03 11:36:48;;;;;;;11.60;6.10;;;;;;;10.69;83.87;101511.31;5049569;28;20086;-87
2023/03/03 11:39:17;;;;;;;13.18;6.00;;;;;;;10.57;83.61;101492.22;5051062;28;20083;-86
2023/03/03 11:42:07;;;;;;;11.27;5.60;;;;;;;10.69;83.62;101511.31;5032982;28;20025;-85
2023/03/03 11:44:35;;;;;;;10.35;5.80;;;;;;;10.74;83.29;101507.28;5044067;28;20087;-87
2023/03/03 11:47:22;;;;;;;10.90;5.93;;;;;;;10.74;83.42;101504.69;5052764;28;20025;-90
2023/03/03 11:50:15;;;;;;;9.70;6.23;;;;;;;10.76;83.38;101507.41;5053374;28;20032;-88
2023/03/03 11:52:52;;;;;;;12.07;6.07;;;;;;;10.78;83.26;101503.19;5068778;28;20048;-86